Time;durP1;ratioP1;P1;durP2;ratioP2;P2;SDS_P1;SDS_P2;PMS_P1;PMS_P2;Temp;Humidity;BMP_temperature;BMP_pressure;BME280_temperature;BME280_humidity;BME280_pressure;Samples;Min_cycle;Max_cycle;Signal;HPM_P1;HPM_P2
2022/11/21 00:03:45;;;;;;;;;;;17.90;59.70;;;;;;10538563;28;20047;-29
2022/11/21 00:08:47;;;;;;;2.25;1.45;;;18.00;59.80;;;;;;10538809;28;20010;-32
2022/11/21 00:13:49;;;;;;;3.08;1.23;;;18.00;59.60;;;;;;10533616;28;20091;-28
2022/11/21 00:18:52;;;;;;;2.55;1.15;;;18.10;59.40;;;;;;10541592;28;20127;-28
2022/11/21 00:23:54;;;;;;;5.07;1.10;;;18.10;59.40;;;;;;10531622;28;20109;-29
2022/11/21 00:28:56;;;;;;;2.85;1.10;;;18.20;59.20;;;;;;10533950;28;20040;-31
2022/11/21 00:33:59;;;;;;;2.60;1.45;;;18.20;59.20;;;;;;10526040;28;20041;-29
2022/11/21 00:39:01;;;;;;;3.22;1.25;;;18.10;59.20;;;;;;10523305;28;20043;-30
2022/11/21 00:44:03;;;;;;;2.63;1.63;;;18.20;59.20;;;;;;10538983;28;20097;-29
2022/11/21 00:49:06;;;;;;;1.95;1.20;;;18.20;59.10;;;;;;10530839;28;20048;-31
2022/11/21 00:54:08;;;;;;;3.78;1.73;;;18.20;59.20;;;;;;10519154;28;20048;-31
2022/11/21 00:59:10;;;;;;;;;;;18.20;59.10;;;;;;10527334;28;20567;-36
2022/11/21 01:04:13;;;;;;;5.30;1.20;;;17.90;59.80;;;;;;10534086;28;19985;-30
2022/11/21 01:09:15;;;;;;;3.83;1.20;;;16.90;62.50;;;;;;10525074;28;20534;-29
2022/11/21 01:14:17;;;;;;;1.85;1.23;;;17.50;62.10;;;;;;10539397;28;20064;-29
2022/11/21 01:19:20;;;;;;;2.58;1.30;;;17.80;60.70;;;;;;10545034;28;20039;-30
2022/11/21 01:24:22;;;;;;;2.80;1.38;;;18.10;59.60;;;;;;10539487;28;20048;-29
2022/11/21 01:29:24;;;;;;;2.22;1.40;;;18.10;59.40;;;;;;10524418;28;20579;-29
2022/11/21 01:34:28;;;;;;;2.35;1.30;;;18.20;59.30;;;;;;10532091;28;20131;-29
2022/11/21 01:39:30;;;;;;;1.65;1.30;;;18.20;59.30;;;;;;10524510;28;20462;-31
2022/11/21 01:44:48;;;;;;;3.45;1.33;;;18.30;59.00;;;;;;10532930;28;20044;-30
2022/11/21 01:49:53;;;;;;;1.30;1.02;;;18.30;59.10;;;;;;10530156;28;20127;-30
2022/11/21 01:54:57;;;;;;;3.85;1.17;;;18.30;59.00;;;;;;10531984;28;20476;-34
2022/11/21 02:00:06;;;;;;;4.15;1.00;;;18.30;59.00;;;;;;10528908;28;20093;-35
2022/11/21 02:05:13;;;;;;;5.05;1.58;;;18.30;59.00;;;;;;10527101;28;20035;-29
2022/11/21 02:10:16;;;;;;;2.10;1.20;;;18.30;59.00;;;;;;10539424;28;20124;-33
2022/11/21 02:15:19;;;;;;;2.67;1.10;;;18.30;59.10;;;;;;10529646;28;20117;-32
2022/11/21 02:20:24;;;;;;;4.82;1.38;;;18.30;59.10;;;;;;10530297;28;20045;-28
2022/11/21 02:25:30;;;;;;;2.53;1.40;;;18.30;59.10;;;;;;10526335;28;20071;-31
2022/11/21 02:30:34;;;;;;;3.88;1.45;;;18.30;59.20;;;;;;10529566;28;20079;-28
2022/11/21 02:35:36;;;;;;;3.22;1.65;;;18.30;59.20;;;;;;10534240;28;20076;-36
2022/11/21 02:40:43;;;;;;;1.50;1.17;;;18.30;59.00;;;;;;10520727;28;20048;-29
2022/11/21 02:45:46;;;;;;;2.90;1.58;;;18.30;59.10;;;;;;10530551;28;20488;-32
2022/11/21 02:50:48;;;;;;;1.95;1.55;;;18.30;58.90;;;;;;10531944;28;20048;-30
2022/11/21 02:55:52;;;;;;;3.10;1.58;;;18.30;59.00;;;;;;10537850;28;20118;-29
2022/11/21 03:00:54;;;;;;;3.85;1.83;;;18.30;59.00;;;;;;10529842;28;20051;-30
2022/11/21 03:05:56;;;;;;;3.65;2.10;;;18.30;58.90;;;;;;10518790;28;20066;-30
2022/11/21 03:10:59;;;;;;;;;;;18.30;59.00;;;;;;10530025;28;20089;-31
2022/11/21 03:16:01;;;;;;;4.25;2.00;;;18.30;59.00;;;;;;10528933;28;20376;-30
2022/11/21 03:21:03;;;;;;;3.67;2.22;;;18.20;59.10;;;;;;10521197;28;20040;-35
2022/11/21 03:26:06;;;;;;;4.82;2.00;;;18.20;59.00;;;;;;10529626;28;20048;-33
2022/11/21 03:31:08;;;;;;;3.63;2.20;;;18.30;58.90;;;;;;10532052;28;20488;-29
2022/11/21 03:36:10;;;;;;;3.55;1.70;;;18.20;59.00;;;;;;10534139;28;20512;-28
2022/11/21 03:46:30;;;;;;;5.45;2.33;;;18.20;58.80;;;;;;10523682;28;20541;-34
2022/11/21 03:51:32;;;;;;;3.28;2.30;;;18.20;58.70;;;;;;10530958;28;20072;-31
2022/11/21 03:56:36;;;;;;;2.80;1.90;;;18.20;58.70;;;;;;10539753;28;20040;-29
2022/11/21 04:01:38;;;;;;;2.75;2.17;;;18.20;58.80;;;;;;10541063;28;20137;-30
2022/11/21 04:06:39;;;;;;;2.83;2.17;;;18.20;58.80;;;;;;10535264;28;20079;-31
2022/11/21 04:11:42;;;;;;;3.33;2.37;;;18.20;59.30;;;;;;10541469;28;20056;-30
2022/11/21 04:16:44;;;;;;;3.28;2.45;;;18.20;58.60;;;;;;10537419;28;20505;-30
2022/11/21 04:21:46;;;;;;;3.08;1.98;;;18.20;58.60;;;;;;10522784;28;20068;-29
2022/11/21 04:26:49;;;;;;;4.78;2.38;;;18.20;58.50;;;;;;10536202;28;20427;-29
2022/11/21 04:31:51;;;;;;;3.75;2.15;;;18.20;58.50;;;;;;10542368;28;20101;-30
2022/11/21 04:36:53;;;;;;;2.40;2.00;;;18.20;58.60;;;;;;10529702;28;20076;-30
2022/11/21 04:41:56;;;;;;;3.57;1.93;;;18.10;58.50;;;;;;10534840;28;20048;-33
2022/11/21 04:46:58;;;;;;;2.58;1.90;;;18.10;58.40;;;;;;10524954;28;20797;-32
2022/11/21 04:52:00;;;;;;;;;;;18.10;58.40;;;;;;10534830;28;20044;-29
2022/11/21 04:57:03;;;;;;;4.93;2.22;;;18.10;58.40;;;;;;10529126;28;20359;-34
2022/11/21 05:02:05;;;;;;;3.05;2.35;;;18.10;58.40;;;;;;10514203;28;20095;-32
2022/11/21 05:07:07;;;;;;;2.38;1.95;;;18.10;58.40;;;;;;10537127;28;20051;-30
2022/11/21 05:17:30;;;;;;;2.55;2.20;;;18.10;58.30;;;;;;10528319;28;20462;-31
2022/11/21 05:22:32;;;;;;;2.67;1.75;;;18.10;58.20;;;;;;10517439;28;20054;-29
2022/11/21 05:27:35;;;;;;;2.80;2.00;;;18.00;58.20;;;;;;10517854;28;20475;-30
2022/11/21 05:32:37;;;;;;;3.08;1.83;;;18.10;58.10;;;;;;10533404;28;20499;-28
2022/11/21 05:37:39;;;;;;;3.17;2.38;;;18.10;58.20;;;;;;10531491;28;20071;-29
2022/11/21 05:48:06;;;;;;;2.22;1.90;;;18.20;58.20;;;;;;10524524;28;20079;-30
2022/11/21 05:53:08;;;;;;;3.83;2.53;;;18.20;58.20;;;;;;10538100;28;20101;-29
2022/11/21 05:58:11;;;;;;;2.90;2.47;;;18.20;58.20;;;;;;10534838;28;20072;-33
2022/11/21 06:03:29;;;;;;;2.30;1.95;;;18.30;58.00;;;;;;10529101;28;20051;-30
2022/11/21 06:08:33;;;;;;;2.78;2.17;;;18.30;58.00;;;;;;10529952;28;20048;-31
2022/11/21 06:13:37;;;;;;;2.95;2.45;;;18.40;58.10;;;;;;10524104;28;20079;-33
2022/11/21 06:18:40;;;;;;;2.55;2.35;;;18.40;58.20;;;;;;10530799;28;20097;-31
2022/11/21 06:23:43;;;;;;;8.80;2.90;;;18.40;58.60;;;;;;10525973;28;20055;-30
2022/11/21 06:28:46;;;;;;;;;;;18.40;58.00;;;;;;10538931;28;20048;-31
2022/11/21 06:33:52;;;;;;;5.07;2.10;;;18.50;58.10;;;;;;10533012;28;20352;-32
2022/11/21 06:38:55;;;;;;;3.65;2.30;;;18.50;58.00;;;;;;10541610;28;20166;-30
2022/11/21 06:44:00;;;;;;;2.53;2.10;;;18.60;58.30;;;;;;10520633;28;20549;-30
2022/11/21 06:49:02;;;;;;;5.82;2.33;;;18.50;58.40;;;;;;10517164;28;20138;-31
2022/11/21 06:54:04;;;;;;;5.60;2.45;;;18.60;58.50;;;;;;10528658;28;20039;-28
2022/11/21 06:59:07;;;;;;;2.72;2.05;;;18.60;59.10;;;;;;10538948;28;20524;-29
2022/11/21 07:15:27;;;;;;;3.08;2.28;;;18.60;57.90;;;;;;10472487;27;2177818;-29
2022/11/21 07:20:29;;;;;;;2.40;1.92;;;18.50;58.50;;;;;;10522540;28;20148;-28
2022/11/21 07:25:31;;;;;;;2.97;1.90;;;18.60;58.40;;;;;;10510774;28;20470;-33
2022/11/21 07:30:35;;;;;;;4.90;2.58;;;18.60;58.50;;;;;;10502183;28;20036;-35
2022/11/21 07:35:37;;;;;;;4.95;2.28;;;18.60;58.50;;;;;;10505286;28;20116;-30
2022/11/21 07:40:39;;;;;;;3.63;2.40;;;18.60;58.40;;;;;;10519605;28;20108;-27
2022/11/21 07:45:42;;;;;;;3.40;2.25;;;18.60;58.30;;;;;;10508144;28;20057;-29
2022/11/21 07:50:44;;;;;;;3.78;2.35;;;18.60;58.30;;;;;;10509590;28;20459;-29
2022/11/21 07:55:46;;;;;;;3.30;2.10;;;18.60;58.30;;;;;;10509283;28;20048;-29
2022/11/21 08:00:49;;;;;;;7.70;2.80;;;18.60;58.40;;;;;;10514896;28;20047;-31
2022/11/21 08:05:51;;;;;;;3.88;2.30;;;18.60;58.30;;;;;;10503444;28;20083;-30
2022/11/21 08:10:53;;;;;;;5.03;2.65;;;18.60;58.90;;;;;;10509875;28;20164;-33
2022/11/21 08:15:56;;;;;;;3.23;2.07;;;18.60;58.30;;;;;;10502774;28;20091;-34
2022/11/21 08:21:01;;;;;;;3.25;2.20;;;18.50;58.70;;;;;;10504459;28;20497;-30
2022/11/21 08:26:02;;;;;;;2.72;2.15;;;18.50;59.00;;;;;;10487957;28;20041;-29
2022/11/21 08:31:06;;;;;;;2.33;1.92;;;18.40;59.10;;;;;;10483490;28;20075;-33
2022/11/21 08:36:08;;;;;;;3.10;2.05;;;18.40;59.20;;;;;;10491435;28;20094;-33
2022/11/21 08:46:36;;;;;;;3.25;1.90;;;18.40;59.20;;;;;;10487429;28;20135;-29
2022/11/21 08:51:38;;;;;;;3.22;2.00;;;18.30;59.20;;;;;;10487504;28;20051;-30
2022/11/21 08:56:40;;;;;;;9.50;1.88;;;18.30;59.10;;;;;;10487048;28;20079;-31
2022/11/21 09:01:43;;;;;;;4.68;2.30;;;18.40;58.90;;;;;;10486889;28;20056;-29
2022/11/21 09:06:45;;;;;;;6.10;1.90;;;18.40;58.80;;;;;;10489267;28;20131;-30
2022/11/21 09:11:47;;;;;;;3.20;2.03;;;18.40;58.80;;;;;;10480965;28;21165;-29
2022/11/21 09:22:10;;;;;;;3.15;1.80;;;18.30;59.00;;;;;;10489122;28;20048;-31
2022/11/21 09:27:12;;;;;;;3.03;1.70;;;18.30;59.00;;;;;;10479568;28;20076;-29
2022/11/21 09:32:15;;;;;;;2.22;1.80;;;18.20;59.20;;;;;;10479730;28;20128;-30
2022/11/21 09:37:17;;;;;;;4.82;1.65;;;18.30;59.20;;;;;;10478257;28;20078;-29
2022/11/21 09:42:40;;;;;;;2.72;1.80;;;18.30;59.30;;;;;;10488201;28;20041;-29
2022/11/21 09:47:47;;;;;;;4.35;1.75;;;18.30;59.10;;;;;;10472838;28;20430;-31
2022/11/21 09:52:55;;;;;;;3.45;1.50;;;18.30;59.00;;;;;;10483334;28;20080;-33
2022/11/21 09:58:00;;;;;;;3.92;1.50;;;18.30;59.10;;;;;;10487168;28;20053;-30
2022/11/21 10:03:04;;;;;;;2.75;1.50;;;17.60;59.90;;;;;;10478372;28;20044;-30
2022/11/21 10:08:15;;;;;;;3.42;2.15;;;18.10;59.60;;;;;;10489889;28;20040;-29
2022/11/21 10:13:31;;;;;;;2.38;1.33;;;18.20;59.20;;;;;;10497202;28;20052;-29
2022/11/21 10:18:54;;;;;;;3.33;1.40;;;18.30;59.00;;;;;;10479154;28;20064;-31
2022/11/21 10:24:19;;;;;;;4.22;1.63;;;18.20;59.20;;;;;;10485048;28;20056;-29
2022/11/21 10:29:25;;;;;;;2.83;1.30;;;18.20;59.40;;;;;;10486694;28;20079;-29
2022/11/21 10:34:34;;;;;;;2.92;1.40;;;18.30;58.70;;;;;;10483772;28;20578;-31
2022/11/21 10:39:41;;;;;;;1.38;0.90;;;18.30;58.90;;;;;;10474137;28;20113;-33
2022/11/21 10:50:14;;;;;;;3.28;1.40;;;18.20;59.00;;;;;;10472370;28;20592;-30
2022/11/21 10:55:17;;;;;;;1.52;1.00;;;18.00;57.80;;;;;;10483082;28;20056;-33
2022/11/21 11:00:24;;;;;;;5.47;1.42;;;18.20;58.90;;;;;;10485530;28;20044;-30
2022/11/21 11:05:29;;;;;;;2.53;1.20;;;18.00;59.60;;;;;;10480780;28;20044;-29
2022/11/21 11:10:33;;;;;;;4.22;1.38;;;18.20;59.10;;;;;;10465700;28;20488;-34
2022/11/21 11:15:38;;;;;;;2.60;1.30;;;18.20;58.70;;;;;;10474156;28;20084;-30
2022/11/21 11:20:43;;;;;;;6.13;2.08;;;17.50;59.20;;;;;;10469673;28;20041;-32
2022/11/21 11:25:47;;;;;;;6.10;1.20;;;16.90;58.20;;;;;;10471267;28;20103;-31
2022/11/21 11:30:49;;;;;;;2.78;1.00;;;17.90;60.70;;;;;;10469177;28;20047;-30
2022/11/21 11:35:53;;;;;;;3.72;1.00;;;18.20;59.50;;;;;;10477336;28;20094;-29
2022/11/21 11:40:59;;;;;;;4.47;1.10;;;18.30;59.00;;;;;;10484834;28;20052;-30
2022/11/21 11:51:53;;;;;;;4.65;1.00;;;18.30;59.20;;;;;;10452849;28;20052;-29
2022/11/21 11:56:57;;;;;;;4.53;1.35;;;18.20;59.40;;;;;;10483647;28;20109;-28
2022/11/21 12:02:03;;;;;;;1.60;1.00;;;18.20;59.30;;;;;;10478632;28;20103;-31
2022/11/21 12:07:12;;;;;;;2.58;1.00;;;18.30;59.00;;;;;;10493866;28;20090;-32
2022/11/21 12:12:23;;;;;;;2.50;0.77;;;18.20;59.20;;;;;;10482491;28;20453;-31
2022/11/21 12:17:32;;;;;;;4.80;0.95;;;18.30;59.10;;;;;;10476317;28;20128;-29
2022/11/21 12:22:35;;;;;;;5.28;0.82;;;18.30;59.20;;;;;;10478669;28;20036;-32
2022/11/21 12:27:41;;;;;;;4.47;1.05;;;18.20;59.20;;;;;;10486458;28;20130;-32
2022/11/21 12:32:56;;;;;;;2.85;1.13;;;18.20;59.20;;;;;;10480379;28;20045;-29
2022/11/21 12:38:10;;;;;;;1.83;0.80;;;18.30;59.00;;;;;;10476994;28;20497;-27
2022/11/21 12:43:23;;;;;;;3.13;0.90;;;18.30;58.80;;;;;;10477997;28;20083;-30
2022/11/21 12:59:35;;;;;;;1.65;0.88;;;18.30;58.80;;;;;;10477511;28;20041;-28
2022/11/21 13:04:40;;;;;;;3.75;1.00;;;18.40;58.70;;;;;;10488762;28;20044;-36
2022/11/21 13:09:47;;;;;;;1.67;0.70;;;18.70;58.30;;;;;;10483755;28;20048;-31
2022/11/21 13:14:52;;;;;;;3.78;0.70;;;18.80;57.90;;;;;;10478334;28;20071;-31
2022/11/21 13:19:59;;;;;;;1.55;0.80;;;19.10;57.60;;;;;;10479953;28;20076;-31
2022/11/21 13:25:03;;;;;;;3.50;1.08;;;19.20;57.50;;;;;;10477472;28;20095;-30
2022/11/21 13:30:22;;;;;;;1.25;0.77;;;19.20;57.50;;;;;;10469242;28;20121;-32
2022/11/21 13:35:57;;;;;;;5.80;1.67;;;19.20;57.80;;;;;;10472578;28;20052;-30
2022/11/21 13:46:54;;;;;;;3.30;1.17;;;19.30;58.30;;;;;;10502965;28;20056;-31
2022/11/21 13:51:56;;;;;;;3.67;0.80;;;19.30;58.30;;;;;;10487420;28;20079;-31
2022/11/21 13:57:04;;;;;;;;;;;19.30;58.20;;;;;;10493330;28;20084;-31
2022/11/21 14:02:25;;;;;;;2.53;0.85;;;19.30;58.20;;;;;;10483654;28;20397;-27
2022/11/21 14:07:30;;;;;;;3.80;1.10;;;19.30;58.20;;;;;;10460150;28;20049;-30
2022/11/21 14:12:36;;;;;;;2.67;0.98;;;19.30;58.30;;;;;;10472899;28;20060;-30
2022/11/21 14:17:43;;;;;;;2.58;1.10;;;19.30;58.20;;;;;;10469186;28;20470;-30
2022/11/21 14:22:53;;;;;;;2.88;1.15;;;19.30;58.30;;;;;;10471395;28;20055;-30
2022/11/21 14:27:57;;;;;;;4.53;1.27;;;19.30;58.30;;;;;;10483421;28;20055;-29
2022/11/21 14:33:20;;;;;;;6.10;1.13;;;19.30;58.30;;;;;;10475691;28;20052;-33
2022/11/21 14:38:23;;;;;;;2.80;0.95;;;19.30;58.30;;;;;;10472789;28;20102;-33
2022/11/21 14:43:32;;;;;;;3.67;0.90;;;19.40;58.10;;;;;;10486675;28;20055;-28
2022/11/21 14:48:34;;;;;;;1.27;0.73;;;19.30;58.30;;;;;;10482826;28;20044;-29
2022/11/21 14:53:41;;;;;;;3.80;0.90;;;19.40;58.10;;;;;;10475909;28;20094;-34
2022/11/21 14:58:45;;;;;;;3.72;0.90;;;19.40;58.10;;;;;;10460369;28;20102;-29
2022/11/21 15:03:55;;;;;;;2.63;1.10;;;19.40;58.10;;;;;;10463327;28;20161;-27
2022/11/21 15:08:57;;;;;;;5.00;0.80;;;19.40;58.00;;;;;;10486984;28;20381;-30
2022/11/21 15:14:06;;;;;;;2.85;0.85;;;19.50;58.10;;;;;;10495276;28;20493;-31
2022/11/21 15:19:09;;;;;;;5.40;1.10;;;19.50;58.50;;;;;;10482573;28;20075;-28
2022/11/21 15:24:19;;;;;;;4.80;0.77;;;19.50;57.90;;;;;;10483332;28;20120;-30
2022/11/21 15:29:23;;;;;;;4.13;1.00;;;19.50;57.90;;;;;;10490443;28;20064;-31
2022/11/21 15:34:28;;;;;;;2.70;1.02;;;19.50;57.80;;;;;;10483570;28;20049;-29
2022/11/21 15:39:30;;;;;;;5.32;1.17;;;19.50;57.90;;;;;;10486432;28;20094;-30
2022/11/21 15:44:34;;;;;;;2.33;0.90;;;19.60;57.90;;;;;;10494412;28;20044;-31
2022/11/21 15:49:36;;;;;;;2.20;0.93;;;19.50;58.20;;;;;;10491935;28;20044;-32
2022/11/21 15:54:38;;;;;;;2.78;1.00;;;19.60;58.30;;;;;;10491051;28;20052;-30
2022/11/21 15:59:41;;;;;;;5.20;1.10;;;19.50;58.30;;;;;;10492332;28;20076;-31
2022/11/21 16:04:43;;;;;;;3.90;1.38;;;19.60;58.40;;;;;;10475034;28;20508;-29
2022/11/21 16:09:45;;;;;;;6.07;1.83;;;19.50;58.60;;;;;;10482970;28;20047;-28
2022/11/21 16:14:48;;;;;;;2.85;0.90;;;19.60;58.60;;;;;;10478013;28;20098;-31
2022/11/21 16:19:50;;;;;;;2.67;1.13;;;19.60;58.70;;;;;;10480699;28;20044;-31
2022/11/21 16:24:52;;;;;;;2.58;1.00;;;19.60;58.50;;;;;;10476837;28;20052;-32
2022/11/21 16:29:55;;;;;;;3.65;0.98;;;19.70;58.50;;;;;;10473916;28;20490;-31
2022/11/21 16:34:58;;;;;;;5.72;1.38;;;19.70;58.30;;;;;;10475256;28;20080;-29
2022/11/21 16:39:59;;;;;;;;;;;19.70;58.30;;;;;;10481260;28;20432;-31
2022/11/21 16:45:03;;;;;;;4.53;1.53;;;19.60;58.30;;;;;;10495443;28;19971;-30
2022/11/21 16:50:06;;;;;;;3.60;1.17;;;19.60;58.50;;;;;;10480123;28;20106;-29
2022/11/21 16:55:08;;;;;;;3.25;1.00;;;19.70;58.40;;;;;;10473323;28;20139;-29
2022/11/21 17:00:12;;;;;;;10.05;2.08;;;19.40;58.60;;;;;;10480149;28;20088;-31
2022/11/21 17:05:14;;;;;;;9.05;1.80;;;19.50;58.90;;;;;;10481102;28;20103;-30
2022/11/21 17:10:16;;;;;;;12.00;2.30;;;19.50;58.70;;;;;;10476810;28;20890;-30
2022/11/21 17:15:21;;;;;;;6.85;1.98;;;19.40;58.80;;;;;;10494180;28;20148;-29
2022/11/21 17:20:23;;;;;;;11.13;2.60;;;19.60;59.10;;;;;;10477430;28;20040;-32
2022/11/21 17:25:25;;;;;;;5.40;2.90;;;19.40;59.80;;;;;;10481038;28;20123;-30
2022/11/21 17:30:29;;;;;;;13.85;3.22;;;19.50;59.90;;;;;;10474883;28;20066;-27
2022/11/21 17:35:31;;;;;;;7.22;2.40;;;19.50;59.90;;;;;;10480376;28;20055;-30
2022/11/21 17:40:33;;;;;;;8.95;2.17;;;19.40;60.20;;;;;;10493104;28;20068;-30
2022/11/21 17:45:36;;;;;;;12.25;2.88;;;19.50;60.20;;;;;;10478773;28;20045;-31
2022/11/21 17:50:38;;;;;;;8.07;2.28;;;19.40;60.50;;;;;;10472485;28;20174;-29
2022/11/21 17:55:40;;;;;;;11.85;1.98;;;19.50;60.20;;;;;;10479787;28;20136;-31
2022/11/21 18:00:44;;;;;;;11.18;2.35;;;19.50;60.20;;;;;;10482706;28;20049;-29
2022/11/21 18:05:46;;;;;;;8.38;2.28;;;19.50;60.30;;;;;;10477202;28;20052;-28
2022/11/21 18:10:52;;;;;;;10.60;2.38;;;19.50;60.90;;;;;;10469215;28;20118;-28
2022/11/21 18:15:55;;;;;;;17.08;2.85;;;19.50;60.40;;;;;;10477389;28;20053;-31
2022/11/21 18:21:02;;;;;;;6.55;1.88;;;19.50;60.40;;;;;;10478889;28;20067;-29
2022/11/21 18:26:06;;;;;;;13.07;2.58;;;19.50;60.50;;;;;;10468268;28;20087;-30
2022/11/21 18:31:12;;;;;;;10.82;2.35;;;19.40;60.70;;;;;;10465835;28;20477;-34
2022/11/21 18:36:15;;;;;;;12.10;2.90;;;19.40;60.90;;;;;;10470515;28;20048;-34
2022/11/21 18:41:19;;;;;;;9.90;3.50;;;19.30;61.10;;;;;;10485792;28;20053;-31
2022/11/21 18:46:24;;;;;;;10.88;4.03;;;19.20;61.50;;;;;;10471020;28;20444;-30
2022/11/21 18:51:28;;;;;;;13.90;3.33;;;19.10;61.90;;;;;;10469722;28;20088;-29
2022/11/21 18:56:31;;;;;;;13.60;4.15;;;19.10;62.10;;;;;;10483676;28;20052;-32
2022/11/21 19:01:35;;;;;;;11.90;3.63;;;19.20;61.60;;;;;;10466924;28;20052;-30
2022/11/21 19:06:37;;;;;;;8.75;3.50;;;19.10;61.60;;;;;;10480532;28;20052;-31
2022/11/21 19:11:39;;;;;;;12.45;2.88;;;19.20;61.70;;;;;;10480044;28;20144;-30
2022/11/21 19:16:43;;;;;;;14.38;4.10;;;19.20;61.80;;;;;;10476261;28;20554;-30
2022/11/21 19:21:45;;;;;;;10.63;4.10;;;19.10;61.40;;;;;;10481768;28;20558;-32
2022/11/21 19:26:49;;;;;;;21.10;6.45;;;19.10;62.10;;;;;;10386312;28;20045;-35
2022/11/21 19:31:52;;;;;;;17.63;4.60;;;19.00;62.80;;;;;;10360841;28;20054;-31
2022/11/21 19:36:54;;;;;;;9.10;3.35;;;19.10;62.40;;;;;;10359498;28;20050;-31
2022/11/21 19:41:56;;;;;;;8.40;3.78;;;18.90;62.80;;;;;;10361813;28;20735;-29
2022/11/21 19:46:59;;;;;;;8.88;3.55;;;19.10;62.60;;;;;;10357587;28;20046;-28
2022/11/21 19:52:01;;;;;;;7.75;2.72;;;19.30;61.80;;;;;;10360781;28;20163;-31
2022/11/21 19:57:03;;;;;;;9.25;3.00;;;19.30;62.00;;;;;;10357373;28;20401;-35
2022/11/21 20:02:12;;;;;;;4.03;1.70;;;19.30;62.30;;;;;;10353654;28;20156;-31
2022/11/21 20:07:14;;;;;;;8.25;2.35;;;19.30;61.80;;;;;;10349190;28;20053;-29
2022/11/21 20:12:16;;;;;;;5.60;1.88;;;19.40;62.10;;;;;;10358971;28;20149;-30
2022/11/21 20:17:19;;;;;;;3.13;1.60;;;19.40;61.80;;;;;;10354926;28;20081;-30
2022/11/21 20:22:21;;;;;;;7.05;1.73;;;19.40;61.70;;;;;;10361571;28;20070;-29
2022/11/21 20:27:23;;;;;;;7.38;1.50;;;19.30;61.70;;;;;;10366977;28;20078;-31
2022/11/21 20:32:27;;;;;;;7.13;2.00;;;19.50;61.20;;;;;;10357085;28;20073;-30
2022/11/21 20:37:29;;;;;;;6.93;1.40;;;19.50;61.40;;;;;;10364602;28;20280;-31
2022/11/21 20:42:31;;;;;;;8.00;1.80;;;19.50;61.30;;;;;;10361513;28;20478;-35
2022/11/21 20:47:36;;;;;;;8.95;2.40;;;19.40;61.50;;;;;;10366622;28;20442;-29
2022/11/21 20:52:38;;;;;;;11.50;3.10;;;19.30;61.50;;;;;;10361978;28;20049;-33
2022/11/21 20:57:40;;;;;;;14.15;6.28;;;19.30;61.50;;;;;;10357370;28;20053;-37
2022/11/21 21:02:44;;;;;;;10.18;2.85;;;19.30;61.80;;;;;;10365742;28;20056;-33
2022/11/21 21:07:45;;;;;;;7.93;3.25;;;19.30;61.70;;;;;;10364105;28;20050;-31
2022/11/21 21:12:47;;;;;;;8.93;3.50;;;19.20;61.90;;;;;;10357269;28;20124;-31
2022/11/21 21:17:51;;;;;;;8.77;3.53;;;19.30;61.60;;;;;;10367072;28;20120;-30
2022/11/21 21:22:55;;;;;;;13.75;4.60;;;19.20;62.10;;;;;;10358784;28;20141;-32
2022/11/21 21:27:57;;;;;;;20.83;5.10;;;19.30;61.90;;;;;;10348581;28;20061;-29
2022/11/21 21:33:00;;;;;;;12.25;4.43;;;19.30;61.80;;;;;;10347742;28;20042;-33
2022/11/21 21:38:02;;;;;;;9.85;2.72;;;19.20;62.10;;;;;;10350610;28;20128;-30
2022/11/21 21:43:04;;;;;;;9.95;2.30;;;19.20;62.10;;;;;;10361794;28;20042;-29
2022/11/21 21:48:07;;;;;;;20.77;3.75;;;19.10;62.20;;;;;;10362598;28;20107;-30
2022/11/21 21:53:09;;;;;;;6.55;2.65;;;19.20;62.20;;;;;;10353983;28;20097;-37
2022/11/21 21:58:11;;;;;;;12.52;3.65;;;19.20;62.10;;;;;;10355916;28;20398;-34
2022/11/21 22:03:14;;;;;;;12.25;3.17;;;19.20;62.10;;;;;;10363882;28;20045;-31
2022/11/21 22:08:16;;;;;;;8.70;1.92;;;19.20;62.20;;;;;;10358143;28;20054;-30
2022/11/21 22:13:18;;;;;;;7.38;2.42;;;19.20;62.20;;;;;;10356277;28;20050;-29
2022/11/21 22:18:22;;;;;;;13.35;2.22;;;19.10;62.40;;;;;;10350313;28;20158;-31
2022/11/21 22:23:24;;;;;;;4.90;2.15;;;19.10;62.10;;;;;;10356548;28;20084;-30
2022/11/21 22:28:28;;;;;;;7.05;2.38;;;19.10;62.20;;;;;;10370716;28;20050;-29
2022/11/21 22:33:32;;;;;;;5.57;1.42;;;19.00;62.50;;;;;;10360811;28;20046;-31
2022/11/21 22:38:35;;;;;;;5.35;1.85;;;19.00;61.90;;;;;;10355567;28;20104;-31
2022/11/21 22:43:37;;;;;;;8.45;2.20;;;19.10;62.20;;;;;;10348843;28;20068;-31
2022/11/21 22:48:40;;;;;;;2.85;1.13;;;19.00;61.90;;;;;;10347883;28;20483;-32
2022/11/21 22:53:42;;;;;;;6.07;1.70;;;19.00;62.30;;;;;;10361040;28;20503;-30
2022/11/21 22:58:45;;;;;;;7.50;1.85;;;19.00;62.10;;;;;;10356914;28;20038;-30
2022/11/21 23:03:48;;;;;;;8.65;1.50;;;19.00;62.40;;;;;;10356848;28;20108;-29
2022/11/21 23:08:51;;;;;;;5.80;1.67;;;18.80;61.40;;;;;;10352038;28;20127;-31
2022/11/21 23:13:55;;;;;;;7.93;1.30;;;18.90;62.20;;;;;;10354094;28;20149;-29
2022/11/21 23:18:58;;;;;;;3.10;0.90;;;18.90;63.00;;;;;;10369477;28;20140;-29
2022/11/21 23:24:00;;;;;;;3.58;1.05;;;18.90;62.10;;;;;;10359167;28;20566;-32
2022/11/21 23:29:02;;;;;;;5.07;1.17;;;19.00;62.10;;;;;;10355227;28;20140;-37
2022/11/21 23:34:05;;;;;;;5.72;1.83;;;18.80;62.00;;;;;;10353622;28;20069;-37
2022/11/21 23:39:07;;;;;;;8.60;1.50;;;18.90;62.20;;;;;;10363794;28;20382;-33
2022/11/21 23:44:09;;;;;;;2.17;0.82;;;18.90;62.20;;;;;;10353814;28;20050;-30
2022/11/21 23:49:12;;;;;;;8.65;1.45;;;18.90;62.10;;;;;;10345892;28;20054;-31
2022/11/21 23:54:14;;;;;;;2.92;1.20;;;18.90;62.30;;;;;;10354695;28;20081;-32
2022/11/21 23:59:15;;;;;;;2.22;1.00;;;18.90;62.00;;;;;;10370109;28;20372;-31
